Cat Creek, Montana
Current Conditions -  °F | °C
As of 10:55 AM on Saturday 22 Nov 2014 (Local Time) from KMVH Reporting Station
Clear Clear  
Wind Chill: 50°   Ceiling: Unl
Heat Index: 50°   Visibility: 10mi
Dew Point: 19°   Wind: 22mph
Humidity: 30%   Direction: 270°W
Pressure: 29.31"   Gusts: NA
Location:  47.1145°N, 108.252°W
Report Text: KMVH 221755Z AUTO 27019KT 10SM CLR 10/M07 A2931 RMK A01
Loading
Personal Weather Stations






























Interactive Weather Map New forecast layout! Learn more

10-Day Weather Forecast

Advertisements
Track Severe Weather on mobile